Time;durP1;ratioP1;P1;durP2;ratioP2;P2;SDS_P1;SDS_P2;PMS_P1;PMS_P2;Temp;Humidity;BMP_temperature;BMP_pressure;BME280_temperature;BME280_humidity;BME280_pressure;Samples;Min_cycle;Max_cycle;Signal;HPM_P1;HPM_P2
2023/07/20 05:13:40;;;;;;;;;;;;;;;;;;5130605;27;19923;-41
2023/07/20 05:16:07;;;;;;;;;;;;;;;;;;5131051;27;20381;-41
2023/07/20 05:18:33;;;;;;;;;;;;;;;;;;5131571;27;20426;-41
2023/07/20 05:20:59;;;;;;;;;;;;;;;;;;5131374;27;20011;-41
2023/07/20 05:23:25;;;;;;;;;;;;;;;;;;5131043;27;19992;-41
2023/07/20 05:25:51;;;;;;;;;;;;;;;;;;5131056;27;19911;-41
2023/07/20 05:28:17;;;;;;;;;;;;;;;;;;5131060;27;19960;-41
2023/07/20 05:30:42;;;;;;;;;;;;;;;;;;5130904;27;19956;-41
2023/07/20 05:33:08;;;;;;;;;;;;;;;;;;5130977;27;19907;-41
2023/07/20 05:35:34;;;;;;;;;;;;;;;;;;5131132;27;19908;-41
2023/07/20 05:38:00;;;;;;;;;;;;;;;;;;5131275;27;19911;-41
2023/07/20 05:40:26;;;;;;;;;;;;;;;;;;5130629;27;19911;-41
2023/07/20 05:42:53;;;;;;;;;;;;;;;;;;5130992;27;19907;-41
2023/07/20 05:45:20;;;;;;;;;;;;;;;;;;5130034;27;19912;-42
2023/07/20 05:47:45;;;;;;;;;;;;;;;;;;5130681;27;19929;-44
2023/07/20 05:50:11;;;;;;;;;;;;;;;;;;5130619;27;20092;-44
2023/07/20 05:52:38;;;;;;;;;;;;;;;;;;5130026;27;20285;-44
2023/07/20 05:55:04;;;;;;;;;;;;;;;;;;5129620;27;19911;-44
2023/07/20 05:57:30;;;;;;;;;;;;;;;;;;5123425;27;19908;-45
2023/07/20 05:59:56;;;;;;;;;;;;;;;;;;5092639;28;19911;-45
2023/07/20 06:02:22;;;;;;;;;;;;;;;;;;5127368;27;20004;-44
2023/07/20 06:04:48;;;;;;;;;;;;;;;;;;5131418;27;20384;-44
2023/07/20 06:07:14;;;;;;;;;;;;;;;;;;5131547;27;20277;-45
2023/07/20 06:09:40;;;;;;;;;;;;;;;;;;5129653;27;19911;-46
2023/07/20 06:12:06;;;;;;;;;;;;;;;;;;5131236;27;19907;-44
2023/07/20 06:14:32;;;;;;;;;;;;;;;;;;5125431;27;19968;-44
2023/07/20 06:16:58;;;;;;;;;;;;;;;;;;5131270;27;19915;-45
2023/07/20 06:19:24;;;;;;;;;;;;;;;;;;5131457;27;20381;-44
2023/07/20 06:21:49;;;;;;;;;;;;;;;;;;5131065;27;19960;-45
2023/07/20 06:24:15;;;;;;;;;;;;;;;;;;5131478;28;19914;-45
2023/07/20 06:26:41;;;;;;;;;;;;;;;;;;5134709;27;19919;-43
2023/07/20 06:29:07;;;;;;;;;;;;;;;;;;5137685;27;20278;-44
2023/07/20 06:31:33;;;;;;;;;;;;;;;;;;5138586;27;19914;-44
2023/07/20 06:33:59;;;;;;;;;;;;;;;;;;5137679;27;20467;-44
2023/07/20 06:36:28;;;;;;;;;;;;;;;;;;5137995;27;20005;-43
2023/07/20 06:38:54;;;;;;;;;;;;;;;;;;5138035;27;20278;-45
2023/07/20 06:41:20;;;;;;;;;;;;;;;;;;5136986;27;20026;-44
2023/07/20 06:43:46;;;;;;;;;;;;;;;;;;5138359;27;19915;-44
2023/07/20 06:46:11;;;;;;;;;;;;;;;;;;5135468;27;19918;-44
2023/07/20 06:48:37;;;;;;;;;;;;;;;;;;5138465;27;19911;-43
2023/07/20 06:51:03;;;;;;;;;;;;;;;;;;5137249;27;19998;-44
2023/07/20 06:53:29;;;;;;;;;;;;;;;;;;5138111;27;19907;-44
2023/07/20 06:55:58;;;;;;;;;;;;;;;;;;5136781;27;19920;-45
2023/07/20 06:58:24;;;;;;;;;;;;;;;;;;5130891;27;19915;-44
2023/07/20 07:00:50;;;;;;;;;;;;;;;;;;5136112;27;19918;-46
2023/07/20 07:03:16;;;;;;;;;;;;;;;;;;5136023;27;20555;-45
2023/07/20 07:05:42;;;;;;;;;;;;;;;;;;5136518;27;19908;-44
2023/07/20 07:08:08;;;;;;;;;;;;;;;;;;5132301;27;19912;-44
2023/07/20 07:10:33;;;;;;;;;;;;;;;;;;5138611;27;19914;-44
2023/07/20 07:13:00;;;;;;;;;;;;;;;;;;5138425;27;19915;-44
2023/07/20 07:15:26;;;;;;;;;;;;;;;;;;5138516;27;20415;-46
2023/07/20 07:17:52;;;;;;;;;;;;;;;;;;5130533;27;20020;-45
2023/07/20 07:20:18;;;;;;;;;;;;;;;;;;5138233;27;19917;-46
2023/07/20 07:22:45;;;;;;;;;;;;;;;;;;5138585;27;19933;-45
2023/07/20 07:25:10;;;;;;;;;;;;;;;;;;5137453;27;19912;-46
2023/07/20 07:27:36;;;;;;;;;;;;;;;;;;5124109;27;20294;-45
2023/07/20 07:30:04;;;;;;;;;;;;;;;;;;5121918;27;20467;-45
2023/07/20 07:32:30;;;;;;;;;;;;;;;;;;5138840;27;19918;-44
2023/07/20 07:34:58;;;;;;;;;;;;;;;;;;5135450;27;19908;-44
2023/07/20 07:37:24;;;;;;;;;;;;;;;;;;5137596;27;20372;-45
2023/07/20 07:39:50;;;;;;;;;;;;;;;;;;5135122;27;19958;-45
2023/07/20 07:42:15;;;;;;;;;;;;;;;;;;5126952;27;19920;-44
2023/07/20 07:44:41;;;;;;;;;;;;;;;;;;5114123;27;19908;-44
2023/07/20 07:47:07;;;;;;;;;;;;;;;;;;5113767;27;19907;-45
2023/07/20 07:49:33;;;;;;;;;;;;;;;;;;5113444;27;19907;-46
2023/07/20 07:52:02;;;;;;;;;;;;;;;;;;5114562;27;19937;-46
2023/07/20 07:54:28;;;;;;;;;;;;;;;;;;5132963;27;19911;-45
2023/07/20 07:56:54;;;;;;;;;;;;;;;;;;5133334;27;19907;-44
2023/07/20 07:59:20;;;;;;;;;;;;;;;;;;5134701;27;19956;-46
2023/07/20 08:01:46;;;;;;;;;;;;;;;;;;5133923;27;19918;-42
2023/07/20 08:04:13;;;;;;;;;;;;;;;;;;5134658;27;19950;-41
2023/07/20 08:06:38;;;;;;;;;;;;;;;;;;5134886;27;19983;-41
2023/07/20 08:09:04;;;;;;;;;;;;;;;;;;5134236;27;19956;-41
2023/07/20 08:11:32;;;;;;;;;;;;;;;;;;5132369;27;20453;-41
2023/07/20 08:13:59;;;;;;;;;;;;;;;;;;5132289;27;20286;-41
2023/07/20 08:16:25;;;;;;;;;;;;;;;;;;5129314;27;20398;-40
2023/07/20 08:18:51;;;;;;;;;;;;;;;;;;5133049;27;20060;-40
2023/07/20 08:21:17;;;;;;;;;;;;;;;;;;5134406;27;19998;-40
2023/07/20 08:23:43;;;;;;;;;;;;;;;;;;5134566;27;20070;-40
2023/07/20 08:26:09;;;;;;;;;;;;;;;;;;5125168;27;20370;-41
2023/07/20 08:28:35;;;;;;;;;;;;;;;;;;5114347;28;19912;-41
2023/07/20 08:31:00;;;;;;;;;;;;;;;;;;5113406;28;20378;-41
2023/07/20 08:33:29;;;;;;;;;;;;;;;;;;5114416;27;19908;-40
2023/07/20 08:35:56;;;;;;;;;;;;;;;;;;5133799;27;19908;-41
2023/07/20 08:38:22;;;;;;;;;;;;;;;;;;5133601;27;19911;-41
2023/07/20 08:40:48;;;;;;;;;;;;;;;;;;5133859;27;19999;-40
2023/07/20 08:43:14;;;;;;;;;;;;;;;;;;5133800;27;19910;-41
2023/07/20 08:45:40;;;;;;;;;;;;;;;;;;5115933;27;19972;-40
2023/07/20 08:48:05;;;;;;;;;;;;;;;;;;5133663;27;19946;-41
2023/07/20 08:50:31;;;;;;;;;;;;;;;;;;5133555;27;19908;-41
2023/07/20 08:52:57;;;;;;;;;;;;;;;;;;5133795;27;20437;-41
2023/07/20 08:55:24;;;;;;;;;;;;;;;;;;5133205;27;19918;-41
2023/07/20 08:57:50;;;;;;;;;;;;;;;;;;5133328;27;20330;-42
2023/07/20 09:00:17;;;;;;;;;;;;;;;;;;5133393;27;19911;-41
2023/07/20 09:02:43;;;;;;;;;;;;;;;;;;5131136;27;19990;-42
2023/07/20 09:05:09;;;;;;;;;;;;;;;;;;5113447;28;19911;-41
2023/07/20 09:07:35;;;;;;;;;;;;;;;;;;5113033;28;19908;-42
2023/07/20 09:10:05;;;;;;;;;;;;;;;;;;5124889;27;20274;-42
2023/07/20 09:12:31;;;;;;;;;;;;;;;;;;5132781;27;20373;-41
2023/07/20 09:14:57;;;;;;;;;;;;;;;;;;5133244;27;19922;-41
2023/07/20 09:17:23;;;;;;;;;;;;;;;;;;5133204;27;19934;-42
2023/07/20 09:19:49;;;;;;;;;;;;;;;;;;5133165;27;20014;-42
2023/07/20 09:22:15;;;;;;;;;;;;;;;;;;5133337;27;19907;-42
2023/07/20 09:24:41;;;;;;;;;;;;;;;;;;5133687;27;20020;-42
2023/07/20 09:27:07;;;;;;;;;;;;;;;;;;5128585;27;19914;-42
2023/07/20 09:29:33;;;;;;;;;;;;;;;;;;5132644;27;19943;-42
2023/07/20 09:32:00;;;;;;;;;;;;;;;;;;5131204;27;19959;-42
2023/07/20 09:34:26;;;;;;;;;;;;;;;;;;5132314;27;19956;-42
2023/07/20 09:36:52;;;;;;;;;;;;;;;;;;5132875;27;19915;-43
2023/07/20 09:39:18;;;;;;;;;;;;;;;;;;5132336;27;19915;-42
2023/07/20 09:41:44;;;;;;;;;;;;;;;;;;5132131;27;19914;-42
2023/07/20 09:44:10;;;;;;;;;;;;;;;;;;5132158;27;20408;-42
2023/07/20 09:46:36;;;;;;;;;;;;;;;;;;5131852;27;20317;-42
2023/07/20 09:49:02;;;;;;;;;;;;;;;;;;5130034;27;19911;-41
2023/07/20 09:51:28;;;;;;;;;;;;;;;;;;5113694;27;19908;-42
2023/07/20 09:53:54;;;;;;;;;;;;;;;;;;5132039;27;19914;-42
2023/07/20 09:56:20;;;;;;;;;;;;;;;;;;5131792;27;19904;-41
2023/07/20 09:58:46;;;;;;;;;;;;;;;;;;5131678;27;19912;-42
2023/07/20 10:01:13;;;;;;;;;;;;;;;;;;5131279;27;19930;-42
2023/07/20 10:03:39;;;;;;;;;;;;;;;;;;5120723;27;19908;-43
2023/07/20 10:06:06;;;;;;;;;;;;;;;;;;5111268;28;19912;-42
2023/07/20 10:08:33;;;;;;;;;;;;;;;;;;5111071;28;20374;-42
2023/07/20 10:11:00;;;;;;;;;;;;;;;;;;5111292;28;19907;-42
2023/07/20 10:13:27;;;;;;;;;;;;;;;;;;5110944;28;19908;-42
2023/07/20 10:15:52;;;;;;;;;;;;;;;;;;5111174;28;20412;-42
2023/07/20 10:18:19;;;;;;;;;;;;;;;;;;5111320;28;19963;-42
2023/07/20 10:20:45;;;;;;;;;;;;;;;;;;5110887;28;19953;-42
2023/07/20 10:23:11;;;;;;;;;;;;;;;;;;5129962;27;19911;-42
2023/07/20 10:25:38;;;;;;;;;;;;;;;;;;5131184;28;19907;-42
2023/07/20 10:28:04;;;;;;;;;;;;;;;;;;5129439;28;20381;-41
2023/07/20 10:30:30;;;;;;;;;;;;;;;;;;5131264;28;20002;-42
2023/07/20 10:32:56;;;;;;;;;;;;;;;;;;5130855;28;19911;-43
2023/07/20 10:35:21;;;;;;;;;;;;;;;;;;5131551;28;20369;-42
2023/07/20 10:37:50;;;;;;;;;;;;;;;;;;5131045;28;20055;-43
2023/07/20 10:40:16;;;;;;;;;;;;;;;;;;5131256;28;19911;-43
2023/07/20 10:42:42;;;;;;;;;;;;;;;;;;5131574;28;20002;-43
2023/07/20 10:45:08;;;;;;;;;;;;;;;;;;5129605;28;19907;-43
2023/07/20 10:47:34;;;;;;;;;;;;;;;;;;5131178;28;19915;-41
2023/07/20 10:50:03;;;;;;;;;;;;;;;;;;5130032;28;19911;-40
2023/07/20 10:52:28;;;;;;;;;;;;;;;;;;5128963;27;19938;-40
2023/07/20 10:54:55;;;;;;;;;;;;;;;;;;5131165;28;20258;-40
2023/07/20 10:57:21;;;;;;;;;;;;;;;;;;5130248;28;19922;-42
2023/07/20 10:59:46;;;;;;;;;;;;;;;;;;5130296;28;19915;-42
2023/07/20 11:02:12;;;;;;;;;;;;;;;;;;5129583;27;20320;-42
2023/07/20 11:04:39;;;;;;;;;;;;;;;;;;5130996;28;19947;-43
2023/07/20 11:07:05;;;;;;;;;;;;;;;;;;5130148;28;19912;-41
2023/07/20 11:09:31;;;;;;;;;;;;;;;;;;5131237;28;20009;-42
2023/07/20 11:11:56;;;;;;;;;;;;;;;;;;5127686;27;19919;-42
2023/07/20 11:14:22;;;;;;;;;;;;;;;;;;5133283;27;19915;-42
2023/07/20 11:16:48;;;;;;;;;;;;;;;;;;5132354;27;20247;-42
2023/07/20 11:19:15;;;;;;;;;;;;;;;;;;5130580;27;19915;-42
2023/07/20 11:21:41;;;;;;;;;;;;;;;;;;5132204;27;20408;-42
2023/07/20 11:24:07;;;;;;;;;;;;;;;;;;5130705;27;20048;-40
2023/07/20 11:26:33;;;;;;;;;;;;;;;;;;5132224;27;20988;-39
2023/07/20 11:28:59;;;;;;;;;;;;;;;;;;5131545;27;19912;-39
2023/07/20 11:31:25;;;;;;;;;;;;;;;;;;5127027;27;20001;-39
2023/07/20 11:33:51;;;;;;;;;;;;;;;;;;5130112;27;20060;-39
2023/07/20 11:36:17;;;;;;;;;;;;;;;;;;5130455;27;19995;-39
2023/07/20 11:38:43;;;;;;;;;;;;;;;;;;5131900;27;19965;-39
2023/07/20 11:41:09;;;;;;;;;;;;;;;;;;5129861;27;19915;-39
2023/07/20 11:43:37;;;;;;;;;;;;;;;;;;5129398;27;19912;-39
2023/07/20 11:46:04;;;;;;;;;;;;;;;;;;5110981;27;19916;-39
2023/07/20 11:48:30;;;;;;;;;;;;;;;;;;5130172;27;19912;-39
2023/07/20 11:50:56;;;;;;;;;;;;;;;;;;5129373;27;19911;-39
2023/07/20 11:53:22;;;;;;;;;;;;;;;;;;5107154;27;20010;-39
2023/07/20 11:55:48;;;;;;;;;;;;;;;;;;5110691;27;20397;-39
2023/07/20 11:58:16;;;;;;;;;;;;;;;;;;5131426;27;19928;-39
2023/07/20 12:00:42;;;;;;;;;;;;;;;;;;5128945;27;20002;-39
2023/07/20 12:03:09;;;;;;;;;;;;;;;;;;5129824;27;20006;-39
2023/07/20 12:05:35;;;;;;;;;;;;;;;;;;5130140;27;20211;-39
2023/07/20 12:08:00;;;;;;;;;;;;;;;;;;5130537;27;19936;-39
2023/07/20 12:10:26;;;;;;;;;;;;;;;;;;5110848;27;19960;-39
2023/07/20 12:12:52;;;;;;;;;;;;;;;;;;5129429;27;20585;-39
2023/07/20 12:15:18;;;;;;;;;;;;;;;;;;5130315;27;19953;-39
2023/07/20 12:17:44;;;;;;;;;;;;;;;;;;5130010;27;20018;-39
2023/07/20 12:20:10;;;;;;;;;;;;;;;;;;5130421;27;19918;-40
2023/07/20 12:22:36;;;;;;;;;;;;;;;;;;5111059;27;19961;-40
2023/07/20 12:25:02;;;;;;;;;;;;;;;;;;5128993;27;19915;-39
2023/07/20 12:27:28;;;;;;;;;;;;;;;;;;5130088;27;19975;-39
2023/07/20 12:29:55;;;;;;;;;;;;;;;;;;5128682;27;19919;-39
2023/07/20 12:32:21;;;;;;;;;;;;;;;;;;5129411;27;19920;-40
2023/07/20 12:34:47;;;;;;;;;;;;;;;;;;5129383;27;19918;-40
2023/07/20 12:37:12;;;;;;;;;;;;;;;;;;5129363;27;20282;-39
2023/07/20 12:39:40;;;;;;;;;;;;;;;;;;5111231;27;20009;-40
2023/07/20 12:42:06;;;;;;;;;;;;;;;;;;5129875;27;19907;-39
2023/07/20 12:44:32;;;;;;;;;;;;;;;;;;5129116;27;19959;-40
2023/07/20 12:46:58;;;;;;;;;;;;;;;;;;5129167;27;19930;-40
2023/07/20 12:49:24;;;;;;;;;;;;;;;;;;5129774;27;19921;-39
2023/07/20 12:51:50;;;;;;;;;;;;;;;;;;5129701;27;19984;-39
2023/07/20 12:54:15;;;;;;;;;;;;;;;;;;5127129;27;19915;-39
2023/07/20 12:56:41;;;;;;;;;;;;;;;;;;5124926;27;19939;-40
2023/07/20 12:59:07;;;;;;;;;;;;;;;;;;5128579;27;19916;-39
2023/07/20 13:01:33;;;;;;;;;;;;;;;;;;5128097;27;19917;-40
2023/07/20 13:03:59;;;;;;;;;;;;;;;;;;5127799;27;19918;-39
2023/07/20 13:06:25;;;;;;;;;;;;;;;;;;5110714;27;19911;-40
2023/07/20 13:08:55;;;;;;;;;;;;;;;;;;5115596;27;19973;-40
2023/07/20 13:11:22;;;;;;;;;;;;;;;;;;5111959;27;20258;-39
2023/07/20 13:13:48;;;;;;;;;;;;;;;;;;5127578;27;21100;-40
2023/07/20 13:16:14;;;;;;;;;;;;;;;;;;5128946;27;19949;-39
2023/07/20 13:18:40;;;;;;;;;;;;;;;;;;5108129;27;19951;-39
2023/07/20 13:21:10;;;;;;;;;;;;;;;;;;5125661;27;19934;-39
2023/07/20 13:23:36;;;;;;;;;;;;;;;;;;5122719;27;20352;-40
2023/07/20 13:26:02;;;;;;;;;;;;;;;;;;5127408;27;19955;-41
2023/07/20 13:28:27;;;;;;;;;;;;;;;;;;5105608;27;19961;-40
2023/07/20 13:30:53;;;;;;;;;;;;;;;;;;5127873;27;19919;-40
2023/07/20 13:33:19;;;;;;;;;;;;;;;;;;5127943;27;19915;-40
2023/07/20 13:35:45;;;;;;;;;;;;;;;;;;5122664;27;20262;-40
2023/07/20 13:38:11;;;;;;;;;;;;;;;;;;5105169;27;19958;-41
2023/07/20 13:40:37;;;;;;;;;;;;;;;;;;5106918;27;19922;-40
2023/07/20 13:43:03;;;;;;;;;;;;;;;;;;5122457;27;20400;-40
2023/07/20 13:45:29;;;;;;;;;;;;;;;;;;5105962;27;19960;-40
2023/07/20 13:47:55;;;;;;;;;;;;;;;;;;5125288;27;19912;-40
2023/07/20 13:50:21;;;;;;;;;;;;;;;;;;5125082;27;19915;-40
2023/07/20 13:52:47;;;;;;;;;;;;;;;;;;5127553;27;19915;-40
2023/07/20 13:55:14;;;;;;;;;;;;;;;;;;5126929;27;20401;-40
2023/07/20 13:57:40;;;;;;;;;;;;;;;;;;5107194;27;19911;-39
2023/07/20 14:00:08;;;;;;;;;;;;;;;;;;5123957;27;20412;-40
2023/07/20 14:02:34;;;;;;;;;;;;;;;;;;5121732;27;19926;-40
2023/07/20 14:05:00;;;;;;;;;;;;;;;;;;5118514;27;19908;-40
2023/07/20 14:07:25;;;;;;;;;;;;;;;;;;5125112;27;19912;-40
2023/07/20 14:09:51;;;;;;;;;;;;;;;;;;5123846;27;19919;-40
2023/07/20 14:12:17;;;;;;;;;;;;;;;;;;5121621;27;20339;-40
2023/07/20 14:14:43;;;;;;;;;;;;;;;;;;5105204;27;20000;-41
2023/07/20 14:17:09;;;;;;;;;;;;;;;;;;5125088;27;20370;-40
2023/07/20 14:19:35;;;;;;;;;;;;;;;;;;5126479;27;19911;-41
2023/07/20 14:22:01;;;;;;;;;;;;;;;;;;5109145;27;19915;-40
2023/07/20 14:24:27;;;;;;;;;;;;;;;;;;5128237;27;19908;-40
2023/07/20 14:26:54;;;;;;;;;;;;;;;;;;5119489;28;20404;-40
2023/07/20 14:29:20;;;;;;;;;;;;;;;;;;5110018;28;19992;-40
2023/07/20 14:31:50;;;;;;;;;;;;;;;;;;5128439;28;19908;-40
2023/07/20 14:34:16;;;;;;;;;;;;;;;;;;5128599;28;20361;-40
2023/07/20 14:36:42;;;;;;;;;;;;;;;;;;5128430;28;20270;-40
2023/07/20 14:39:08;;;;;;;;;;;;;;;;;;5127213;28;19920;-40
2023/07/20 14:41:34;;;;;;;;;;;;;;;;;;5126229;27;20338;-41
2023/07/20 14:44:00;;;;;;;;;;;;;;;;;;5128732;28;19907;-41
2023/07/20 14:46:26;;;;;;;;;;;;;;;;;;5128664;27;19907;-40
2023/07/20 14:48:52;;;;;;;;;;;;;;;;;;5130654;27;20193;-40
2023/07/20 14:51:18;;;;;;;;;;;;;;;;;;5131049;27;20028;-40
2023/07/20 14:53:43;;;;;;;;;;;;;;;;;;5130179;27;20381;-40
2023/07/20 14:56:10;;;;;;;;;;;;;;;;;;5130541;27;20294;-40
2023/07/20 14:58:35;;;;;;;;;;;;;;;;;;5131509;27;19923;-40
2023/07/20 15:01:01;;;;;;;;;;;;;;;;;;5131982;27;19907;-40
2023/07/20 15:03:27;;;;;;;;;;;;;;;;;;5132957;27;19908;-41
2023/07/20 15:05:53;;;;;;;;;;;;;;;;;;5125187;27;19918;-40
2023/07/20 15:08:19;;;;;;;;;;;;;;;;;;5128682;27;20009;-41
2023/07/20 15:10:46;;;;;;;;;;;;;;;;;;5110964;27;20374;-40
2023/07/20 15:13:12;;;;;;;;;;;;;;;;;;5124747;27;20366;-40
2023/07/20 15:15:38;;;;;;;;;;;;;;;;;;5112660;27;19998;-40
2023/07/20 15:18:04;;;;;;;;;;;;;;;;;;5126968;27;19915;-40
2023/07/20 15:20:31;;;;;;;;;;;;;;;;;;5126580;27;19915;-42
2023/07/20 15:22:57;;;;;;;;;;;;;;;;;;5128775;27;19912;-41
2023/07/20 15:25:23;;;;;;;;;;;;;;;;;;5126189;27;19911;-42
2023/07/20 15:27:49;;;;;;;;;;;;;;;;;;5131539;27;19915;-42
2023/07/20 15:30:15;;;;;;;;;;;;;;;;;;5130447;27;19916;-42
2023/07/20 15:32:43;;;;;;;;;;;;;;;;;;5121134;27;19920;-41
2023/07/20 15:35:09;;;;;;;;;;;;;;;;;;5104842;27;19966;-42
2023/07/20 15:37:36;;;;;;;;;;;;;;;;;;5130267;27;19981;-43
2023/07/20 15:40:04;;;;;;;;;;;;;;;;;;5126720;27;19915;-41
2023/07/20 15:42:30;;;;;;;;;;;;;;;;;;5129545;27;20409;-41
2023/07/20 15:44:56;;;;;;;;;;;;;;;;;;5126139;27;19915;-43
2023/07/20 15:47:22;;;;;;;;;;;;;;;;;;5128483;27;19911;-42
2023/07/20 15:49:48;;;;;;;;;;;;;;;;;;5129474;27;20507;-41
2023/07/20 15:52:14;;;;;;;;;;;;;;;;;;5126894;27;19911;-41
2023/07/20 15:54:40;;;;;;;;;;;;;;;;;;5112496;27;19916;-42
2023/07/20 15:57:05;;;;;;;;;;;;;;;;;;5125001;27;20006;-41
2023/07/20 15:59:31;;;;;;;;;;;;;;;;;;5105586;27;20317;-41
2023/07/20 16:01:57;;;;;;;;;;;;;;;;;;5126959;27;19911;-41
2023/07/20 16:04:23;;;;;;;;;;;;;;;;;;5128457;27;19926;-42
2023/07/20 16:06:49;;;;;;;;;;;;;;;;;;5126586;27;20404;-41
2023/07/20 16:09:15;;;;;;;;;;;;;;;;;;5123037;27;19912;-42
2023/07/20 16:11:41;;;;;;;;;;;;;;;;;;5126562;27;19915;-41
2023/07/20 16:14:07;;;;;;;;;;;;;;;;;;5127547;27;19923;-41
2023/07/20 16:16:33;;;;;;;;;;;;;;;;;;5125547;27;19939;-41
2023/07/20 16:18:59;;;;;;;;;;;;;;;;;;5128454;27;19963;-41
2023/07/20 16:21:25;;;;;;;;;;;;;;;;;;5125579;27;19917;-41
2023/07/20 16:23:50;;;;;;;;;;;;;;;;;;5108222;27;19922;-41
2023/07/20 16:26:16;;;;;;;;;;;;;;;;;;5124478;27;19911;-42
2023/07/20 16:28:44;;;;;;;;;;;;;;;;;;5120985;27;20049;-41
2023/07/20 16:31:10;;;;;;;;;;;;;;;;;;5107647;27;19922;-41
2023/07/20 16:33:36;;;;;;;;;;;;;;;;;;5107355;27;20199;-41
2023/07/20 16:36:01;;;;;;;;;;;;;;;;;;5122127;27;19926;-41
2023/07/20 16:38:27;;;;;;;;;;;;;;;;;;5126259;27;19915;-41
2023/07/20 16:40:53;;;;;;;;;;;;;;;;;;5127477;27;20381;-41
2023/07/20 16:43:19;;;;;;;;;;;;;;;;;;5126816;27;19918;-41
2023/07/20 16:45:45;;;;;;;;;;;;;;;;;;5126259;27;20445;-41
2023/07/20 16:48:11;;;;;;;;;;;;;;;;;;5108852;27;19911;-41
2023/07/20 16:50:37;;;;;;;;;;;;;;;;;;5125826;27;20397;-42
2023/07/20 16:53:03;;;;;;;;;;;;;;;;;;5127299;27;20405;-42
2023/07/20 16:55:28;;;;;;;;;;;;;;;;;;5125612;27;19912;-41
2023/07/20 16:57:54;;;;;;;;;;;;;;;;;;5123193;27;20394;-41
2023/07/20 17:00:21;;;;;;;;;;;;;;;;;;5111068;27;19946;-41
2023/07/20 17:02:47;;;;;;;;;;;;;;;;;;5128070;27;19908;-41
2023/07/20 17:05:13;;;;;;;;;;;;;;;;;;5125595;27;20321;-41
2023/07/20 17:07:39;;;;;;;;;;;;;;;;;;5127986;27;19915;-41
2023/07/20 17:10:06;;;;;;;;;;;;;;;;;;5107941;27;19912;-41
2023/07/20 17:12:32;;;;;;;;;;;;;;;;;;5109072;27;20298;-41
2023/07/20 17:14:58;;;;;;;;;;;;;;;;;;5124998;27;20307;-41
2023/07/20 17:17:24;;;;;;;;;;;;;;;;;;5128221;27;20002;-41
2023/07/20 17:19:50;;;;;;;;;;;;;;;;;;5125270;27;19938;-41
2023/07/20 17:22:16;;;;;;;;;;;;;;;;;;5129643;27;20033;-41
2023/07/20 17:24:42;;;;;;;;;;;;;;;;;;5127848;27;19991;-41
2023/07/20 17:27:08;;;;;;;;;;;;;;;;;;5129833;27;20396;-41
2023/07/20 17:29:34;;;;;;;;;;;;;;;;;;5127361;27;20373;-41
2023/07/20 17:32:00;;;;;;;;;;;;;;;;;;5124546;27;20409;-41
2023/07/20 17:34:26;;;;;;;;;;;;;;;;;;5128111;27;19964;-42
2023/07/20 17:36:52;;;;;;;;;;;;;;;;;;5124453;27;19995;-41
2023/07/20 17:39:17;;;;;;;;;;;;;;;;;;5124115;27;19923;-41
2023/07/20 17:41:45;;;;;;;;;;;;;;;;;;5123294;27;19919;-41
2023/07/20 17:44:11;;;;;;;;;;;;;;;;;;5125196;27;20327;-41
2023/07/20 17:46:37;;;;;;;;;;;;;;;;;;5127689;27;19912;-41
2023/07/20 17:49:05;;;;;;;;;;;;;;;;;;5107057;27;19915;-41
2023/07/20 17:51:31;;;;;;;;;;;;;;;;;;5125892;27;19915;-41
2023/07/20 17:53:57;;;;;;;;;;;;;;;;;;5103896;27;19915;-41
2023/07/20 17:56:23;;;;;;;;;;;;;;;;;;5125702;27;19912;-41
2023/07/20 17:58:49;;;;;;;;;;;;;;;;;;5123962;27;20358;-41
2023/07/20 18:01:15;;;;;;;;;;;;;;;;;;5123351;27;19994;-41
2023/07/20 18:03:40;;;;;;;;;;;;;;;;;;5120012;27;19919;-42
2023/07/20 18:06:06;;;;;;;;;;;;;;;;;;5124328;27;19911;-42
2023/07/20 18:08:32;;;;;;;;;;;;;;;;;;5126480;27;19915;-41
2023/07/20 18:10:58;;;;;;;;;;;;;;;;;;5123263;27;20274;-42
2023/07/20 18:13:24;;;;;;;;;;;;;;;;;;5105362;27;19911;-41
2023/07/20 18:15:50;;;;;;;;;;;;;;;;;;5123725;27;19958;-41
2023/07/20 18:18:16;;;;;;;;;;;;;;;;;;5119177;27;19915;-41
2023/07/20 18:20:42;;;;;;;;;;;;;;;;;;5124264;27;19954;-42
2023/07/20 18:23:08;;;;;;;;;;;;;;;;;;5126159;27;19916;-41
2023/07/20 18:25:34;;;;;;;;;;;;;;;;;;5120611;27;19915;-41
2023/07/20 18:27:59;;;;;;;;;;;;;;;;;;5105428;28;19912;-41
2023/07/20 18:30:32;;;;;;;;;;;;;;;;;;5125232;27;19912;-41
2023/07/20 18:32:58;;;;;;;;;;;;;;;;;;5121814;27;19953;-41
2023/07/20 18:35:24;;;;;;;;;;;;;;;;;;5127183;27;19950;-41
2023/07/20 18:37:50;;;;;;;;;;;;;;;;;;5126220;27;19912;-41
2023/07/20 18:40:16;;;;;;;;;;;;;;;;;;5124235;27;19915;-41
2023/07/20 18:42:41;;;;;;;;;;;;;;;;;;5127913;28;19915;-41
2023/07/20 18:45:07;;;;;;;;;;;;;;;;;;5126739;27;19912;-41
2023/07/20 18:47:34;;;;;;;;;;;;;;;;;;5128299;27;20334;-41
2023/07/20 18:50:00;;;;;;;;;;;;;;;;;;5125718;27;19971;-40
2023/07/20 18:52:26;;;;;;;;;;;;;;;;;;5106291;28;19998;-40
2023/07/20 18:54:52;;;;;;;;;;;;;;;;;;5124708;27;20009;-40
2023/07/20 18:57:18;;;;;;;;;;;;;;;;;;5126708;27;19927;-40
2023/07/20 18:59:44;;;;;;;;;;;;;;;;;;5127791;28;20044;-40
2023/07/20 19:02:10;;;;;;;;;;;;;;;;;;5127037;27;19912;-41
2023/07/20 19:04:36;;;;;;;;;;;;;;;;;;5126605;27;19979;-41
2023/07/20 19:07:02;;;;;;;;;;;;;;;;;;5104501;28;19911;-41
2023/07/20 19:09:27;;;;;;;;;;;;;;;;;;5128373;28;19930;-42
2023/07/20 19:11:53;;;;;;;;;;;;;;;;;;5107561;28;19915;-41
2023/07/20 19:14:19;;;;;;;;;;;;;;;;;;5128055;28;20370;-41
2023/07/20 19:16:45;;;;;;;;;;;;;;;;;;5099708;28;20010;-41
2023/07/20 19:19:11;;;;;;;;;;;;;;;;;;5125556;27;19919;-41
2023/07/20 19:21:37;;;;;;;;;;;;;;;;;;5127973;28;19967;-41
2023/07/20 19:24:03;;;;;;;;;;;;;;;;;;5106497;28;19919;-41
2023/07/20 19:26:29;;;;;;;;;;;;;;;;;;5126774;27;20418;-42
2023/07/20 19:28:55;;;;;;;;;;;;;;;;;;5126776;28;19919;-41
2023/07/20 19:31:21;;;;;;;;;;;;;;;;;;5108651;28;19969;-41
2023/07/20 19:33:47;;;;;;;;;;;;;;;;;;5129342;27;19972;-41
2023/07/20 19:36:13;;;;;;;;;;;;;;;;;;5130341;27;20031;-41
2023/07/20 19:38:39;;;;;;;;;;;;;;;;;;5130923;27;19915;-41
2023/07/20 19:41:05;;;;;;;;;;;;;;;;;;5130838;27;19911;-41
2023/07/20 19:43:31;;;;;;;;;;;;;;;;;;5130562;27;19951;-41
2023/07/20 19:45:57;;;;;;;;;;;;;;;;;;5130362;27;19993;-41
2023/07/20 19:48:23;;;;;;;;;;;;;;;;;;5112203;27;19960;-41
2023/07/20 19:50:52;;;;;;;;;;;;;;;;;;5129778;27;20298;-41
2023/07/20 19:53:18;;;;;;;;;;;;;;;;;;5130370;27;19964;-41
2023/07/20 19:55:43;;;;;;;;;;;;;;;;;;5130817;27;19911;-41
2023/07/20 19:58:09;;;;;;;;;;;;;;;;;;5131216;27;20554;-41
2023/07/20 20:00:35;;;;;;;;;;;;;;;;;;5128405;27;19922;-41
2023/07/20 20:03:01;;;;;;;;;;;;;;;;;;5129223;27;19915;-40
2023/07/20 20:05:27;;;;;;;;;;;;;;;;;;5130009;27;19919;-41
2023/07/20 20:07:53;;;;;;;;;;;;;;;;;;5130199;27;20355;-41
2023/07/20 20:10:19;;;;;;;;;;;;;;;;;;5111079;27;19918;-41
2023/07/20 20:12:45;;;;;;;;;;;;;;;;;;5127128;27;19934;-41
2023/07/20 20:15:11;;;;;;;;;;;;;;;;;;5129763;27;19959;-41
2023/07/20 20:17:38;;;;;;;;;;;;;;;;;;5112029;27;19911;-40
2023/07/20 20:20:04;;;;;;;;;;;;;;;;;;5129300;27;19915;-40
2023/07/20 20:22:30;;;;;;;;;;;;;;;;;;5111912;27;20468;-41
2023/07/20 20:24:56;;;;;;;;;;;;;;;;;;5130153;27;19911;-41
2023/07/20 20:27:21;;;;;;;;;;;;;;;;;;5127506;27;20442;-41
2023/07/20 20:29:47;;;;;;;;;;;;;;;;;;5129183;27;19965;-41
2023/07/20 20:32:13;;;;;;;;;;;;;;;;;;5130374;27;19919;-41
2023/07/20 20:34:39;;;;;;;;;;;;;;;;;;5130647;27;19911;-41
2023/07/20 20:37:05;;;;;;;;;;;;;;;;;;5129009;27;19915;-41
2023/07/20 20:39:31;;;;;;;;;;;;;;;;;;5129498;27;19923;-41
2023/07/20 20:41:57;;;;;;;;;;;;;;;;;;5129884;27;20298;-41
2023/07/20 20:44:25;;;;;;;;;;;;;;;;;;5120307;27;19919;-41
2023/07/20 20:46:51;;;;;;;;;;;;;;;;;;5090868;28;20547;-41
2023/07/20 20:49:17;;;;;;;;;;;;;;;;;;5098475;27;19912;-40
2023/07/20 20:51:44;;;;;;;;;;;;;;;;;;5130345;27;19911;-40
2023/07/20 20:54:10;;;;;;;;;;;;;;;;;;5130267;27;19917;-41
2023/07/20 20:56:36;;;;;;;;;;;;;;;;;;5130387;27;20309;-41
2023/07/20 20:59:02;;;;;;;;;;;;;;;;;;5126742;27;19923;-41
2023/07/20 21:01:28;;;;;;;;;;;;;;;;;;5129158;27;19947;-40
2023/07/20 21:03:54;;;;;;;;;;;;;;;;;;5128302;27;19973;-40
2023/07/20 21:06:20;;;;;;;;;;;;;;;;;;5130084;27;19918;-40
2023/07/20 21:08:46;;;;;;;;;;;;;;;;;;5129427;27;19918;-40
2023/07/20 21:11:12;;;;;;;;;;;;;;;;;;5129312;27;20023;-40
2023/07/20 21:13:38;;;;;;;;;;;;;;;;;;5129798;27;19912;-40
2023/07/20 21:16:04;;;;;;;;;;;;;;;;;;5111144;27;20285;-40
2023/07/20 21:18:30;;;;;;;;;;;;;;;;;;5129872;27;19922;-41
2023/07/20 21:20:56;;;;;;;;;;;;;;;;;;5129094;27;19964;-40
2023/07/20 21:23:21;;;;;;;;;;;;;;;;;;5129853;27;19934;-41
2023/07/20 21:25:47;;;;;;;;;;;;;;;;;;5111043;27;19947;-40
2023/07/20 21:28:13;;;;;;;;;;;;;;;;;;5128993;27;19959;-40
2023/07/20 21:30:41;;;;;;;;;;;;;;;;;;5129570;27;20318;-41
2023/07/20 21:33:07;;;;;;;;;;;;;;;;;;5128664;27;19911;-41
2023/07/20 21:35:33;;;;;;;;;;;;;;;;;;5129168;27;19919;-40
2023/07/20 21:37:59;;;;;;;;;;;;;;;;;;5129036;27;19911;-40
2023/07/20 21:40:25;;;;;;;;;;;;;;;;;;5128576;27;20287;-40
2023/07/20 21:42:51;;;;;;;;;;;;;;;;;;5129344;27;19919;-40
2023/07/20 21:45:17;;;;;;;;;;;;;;;;;;5110592;27;19911;-40
2023/07/20 21:47:42;;;;;;;;;;;;;;;;;;5109974;27;19918;-40
2023/07/20 21:50:09;;;;;;;;;;;;;;;;;;5128205;27;19972;-40